sensor_id;sensor_type;location;lat;lon;timestamp;temperature;humidity
1700;DHT22;847;48.058;7.810;2023-08-20T00:01:02;24.10;96.80
1700;DHT22;847;48.058;7.810;2023-08-20T00:03:31;24.00;97.10
1700;DHT22;847;48.058;7.810;2023-08-20T00:05:58;24.10;97.20
1700;DHT22;847;48.058;7.810;2023-08-20T00:08:25;24.10;96.80
1700;DHT22;847;48.058;7.810;2023-08-20T00:10:52;24.00;97.50
1700;DHT22;847;48.058;7.810;2023-08-20T00:13:18;24.10;96.90
1700;DHT22;847;48.058;7.810;2023-08-20T00:15:45;24.20;96.50
1700;DHT22;847;48.058;7.810;2023-08-20T00:18:13;24.10;96.70
1700;DHT22;847;48.058;7.810;2023-08-20T00:20:42;24.00;96.50
1700;DHT22;847;48.058;7.810;2023-08-20T00:23:11;24.00;96.20
1700;DHT22;847;48.058;7.810;2023-08-20T00:25:38;24.00;96.20
1700;DHT22;847;48.058;7.810;2023-08-20T00:28:05;24.00;96.00
1700;DHT22;847;48.058;7.810;2023-08-20T00:30:32;24.00;96.00
1700;DHT22;847;48.058;7.810;2023-08-20T00:32:59;23.90;95.90
1700;DHT22;847;48.058;7.810;2023-08-20T00:35:27;23.80;96.30
1700;DHT22;847;48.058;7.810;2023-08-20T00:37:55;23.80;96.70
1700;DHT22;847;48.058;7.810;2023-08-20T00:40:22;23.80;96.80
1700;DHT22;847;48.058;7.810;2023-08-20T00:42:48;23.70;97.20
1700;DHT22;847;48.058;7.810;2023-08-20T00:45:15;23.80;97.00
1700;DHT22;847;48.058;7.810;2023-08-20T00:47:43;23.80;96.80
1700;DHT22;847;48.058;7.810;2023-08-20T00:50:10;23.80;96.80
1700;DHT22;847;48.058;7.810;2023-08-20T00:52:37;23.50;97.90
1700;DHT22;847;48.058;7.810;2023-08-20T00:55:08;23.40;98.30
1700;DHT22;847;48.058;7.810;2023-08-20T00:57:35;23.40;98.50
1700;DHT22;847;48.058;7.810;2023-08-20T01:00:03;23.40;98.70
1700;DHT22;847;48.058;7.810;2023-08-20T01:02:32;23.40;98.30
1700;DHT22;847;48.058;7.810;2023-08-20T01:05:00;23.30;98.90
1700;DHT22;847;48.058;7.810;2023-08-20T01:07:33;23.20;99.00
1700;DHT22;847;48.058;7.810;2023-08-20T01:10:11;23.00;99.00
1700;DHT22;847;48.058;7.810;2023-08-20T01:12:41;23.00;99.00
1700;DHT22;847;48.058;7.810;2023-08-20T01:15:10;23.10;99.00
1700;DHT22;847;48.058;7.810;2023-08-20T01:17:39;23.20;99.00
1700;DHT22;847;48.058;7.810;2023-08-20T01:20:07;23.20;99.00
1700;DHT22;847;48.058;7.810;2023-08-20T01:22:53;23.10;99.00
1700;DHT22;847;48.058;7.810;2023-08-20T01:25:37;23.20;99.00
1700;DHT22;847;48.058;7.810;2023-08-20T01:28:23;23.20;98.90
1700;DHT22;847;48.058;7.810;2023-08-20T01:30:50;23.10;98.50
1700;DHT22;847;48.058;7.810;2023-08-20T01:33:19;23.10;98.80
1700;DHT22;847;48.058;7.810;2023-08-20T01:35:46;23.10;98.80
1700;DHT22;847;48.058;7.810;2023-08-20T01:38:12;23.00;99.00
1700;DHT22;847;48.058;7.810;2023-08-20T01:40:39;23.10;99.00
1700;DHT22;847;48.058;7.810;2023-08-20T01:43:06;23.00;99.00
1700;DHT22;847;48.058;7.810;2023-08-20T01:45:34;23.10;99.00
1700;DHT22;847;48.058;7.810;2023-08-20T01:48:01;23.10;99.00
1700;DHT22;847;48.058;7.810;2023-08-20T01:50:29;23.00;99.00
1700;DHT22;847;48.058;7.810;2023-08-20T01:52:55;23.00;99.00
1700;DHT22;847;48.058;7.810;2023-08-20T01:55:22;23.00;99.00
1700;DHT22;847;48.058;7.810;2023-08-20T01:57:49;22.90;99.00
1700;DHT22;847;48.058;7.810;2023-08-20T02:00:16;22.90;99.00
1700;DHT22;847;48.058;7.810;2023-08-20T02:02:44;22.90;99.00
1700;DHT22;847;48.058;7.810;2023-08-20T02:05:10;22.90;99.00
1700;DHT22;847;48.058;7.810;2023-08-20T02:07:38;22.80;99.00
1700;DHT22;847;48.058;7.810;2023-08-20T02:10:05;22.80;99.00
1700;DHT22;847;48.058;7.810;2023-08-20T02:12:32;22.70;99.00
1700;DHT22;847;48.058;7.810;2023-08-20T02:14:59;22.80;99.00
1700;DHT22;847;48.058;7.810;2023-08-20T02:17:26;22.70;99.00
1700;DHT22;847;48.058;7.810;2023-08-20T02:19:54;22.70;99.00
1700;DHT22;847;48.058;7.810;2023-08-20T02:22:20;22.70;99.00
1700;DHT22;847;48.058;7.810;2023-08-20T02:24:47;22.70;99.00
1700;DHT22;847;48.058;7.810;2023-08-20T02:27:14;22.70;99.00
1700;DHT22;847;48.058;7.810;2023-08-20T02:29:41;22.70;99.00
1700;DHT22;847;48.058;7.810;2023-08-20T02:32:07;22.60;99.00
1700;DHT22;847;48.058;7.810;2023-08-20T02:34:34;22.60;99.00
1700;DHT22;847;48.058;7.810;2023-08-20T02:37:02;22.60;99.00
1700;DHT22;847;48.058;7.810;2023-08-20T02:39:29;22.60;99.00
1700;DHT22;847;48.058;7.810;2023-08-20T02:41:56;22.50;99.00
1700;DHT22;847;48.058;7.810;2023-08-20T02:44:23;22.50;99.00
1700;DHT22;847;48.058;7.810;2023-08-20T02:46:50;22.50;99.00
1700;DHT22;847;48.058;7.810;2023-08-20T02:49:17;22.40;99.00
1700;DHT22;847;48.058;7.810;2023-08-20T02:51:43;22.40;99.00
1700;DHT22;847;48.058;7.810;2023-08-20T02:54:11;22.40;99.00
1700;DHT22;847;48.058;7.810;2023-08-20T02:56:38;22.30;99.00
1700;DHT22;847;48.058;7.810;2023-08-20T02:59:05;22.20;99.00
1700;DHT22;847;48.058;7.810;2023-08-20T03:01:32;22.10;99.00
1700;DHT22;847;48.058;7.810;2023-08-20T03:03:58;22.10;99.00
1700;DHT22;847;48.058;7.810;2023-08-20T03:06:25;21.90;99.00
1700;DHT22;847;48.058;7.810;2023-08-20T03:08:52;21.90;99.00
1700;DHT22;847;48.058;7.810;2023-08-20T03:11:20;22.00;99.00
1700;DHT22;847;48.058;7.810;2023-08-20T03:13:47;22.00;99.00
1700;DHT22;847;48.058;7.810;2023-08-20T03:16:13;22.00;99.00
1700;DHT22;847;48.058;7.810;2023-08-20T03:18:40;22.00;99.00
1700;DHT22;847;48.058;7.810;2023-08-20T03:21:07;22.10;99.00
1700;DHT22;847;48.058;7.810;2023-08-20T03:23:33;22.10;99.00
1700;DHT22;847;48.058;7.810;2023-08-20T03:26:00;22.10;99.00
1700;DHT22;847;48.058;7.810;2023-08-20T03:28:29;22.10;99.00
1700;DHT22;847;48.058;7.810;2023-08-20T03:30:59;22.20;99.00
1700;DHT22;847;48.058;7.810;2023-08-20T03:33:26;22.10;99.00
1700;DHT22;847;48.058;7.810;2023-08-20T03:35:53;22.10;99.00
1700;DHT22;847;48.058;7.810;2023-08-20T03:38:20;22.10;99.00
1700;DHT22;847;48.058;7.810;2023-08-20T03:40:47;22.10;99.00
1700;DHT22;847;48.058;7.810;2023-08-20T03:43:14;22.10;99.00
1700;DHT22;847;48.058;7.810;2023-08-20T03:45:42;22.00;99.00
1700;DHT22;847;48.058;7.810;2023-08-20T03:48:09;22.00;99.00
1700;DHT22;847;48.058;7.810;2023-08-20T03:50:36;21.90;99.00
1700;DHT22;847;48.058;7.810;2023-08-20T03:53:03;21.90;99.00
1700;DHT22;847;48.058;7.810;2023-08-20T03:55:30;21.90;99.00
1700;DHT22;847;48.058;7.810;2023-08-20T03:57:57;21.80;99.00
1700;DHT22;847;48.058;7.810;2023-08-20T04:00:23;21.70;99.00
1700;DHT22;847;48.058;7.810;2023-08-20T04:02:51;21.70;99.00
1700;DHT22;847;48.058;7.810;2023-08-20T04:05:18;21.70;99.00
1700;DHT22;847;48.058;7.810;2023-08-20T04:07:45;21.70;99.00
1700;DHT22;847;48.058;7.810;2023-08-20T04:10:12;21.70;99.00
1700;DHT22;847;48.058;7.810;2023-08-20T04:12:39;21.80;99.00
1700;DHT22;847;48.058;7.810;2023-08-20T04:15:06;21.80;99.00
1700;DHT22;847;48.058;7.810;2023-08-20T04:17:33;21.90;99.00
1700;DHT22;847;48.058;7.810;2023-08-20T04:20:01;21.90;99.00
1700;DHT22;847;48.058;7.810;2023-08-20T04:22:29;21.90;99.00
1700;DHT22;847;48.058;7.810;2023-08-20T04:24:56;22.00;99.00
1700;DHT22;847;48.058;7.810;2023-08-20T04:27:23;22.00;99.00
1700;DHT22;847;48.058;7.810;2023-08-20T04:29:50;22.00;99.00
1700;DHT22;847;48.058;7.810;2023-08-20T04:32:17;22.00;99.00
1700;DHT22;847;48.058;7.810;2023-08-20T04:34:44;22.10;99.00
1700;DHT22;847;48.058;7.810;2023-08-20T04:37:13;22.20;99.00
1700;DHT22;847;48.058;7.810;2023-08-20T04:39:39;22.20;99.00
1700;DHT22;847;48.058;7.810;2023-08-20T04:42:06;22.10;99.00
1700;DHT22;847;48.058;7.810;2023-08-20T04:44:33;22.10;99.00
1700;DHT22;847;48.058;7.810;2023-08-20T04:47:00;22.00;99.00
1700;DHT22;847;48.058;7.810;2023-08-20T04:49:27;22.00;99.00
1700;DHT22;847;48.058;7.810;2023-08-20T04:51:55;22.10;99.00
1700;DHT22;847;48.058;7.810;2023-08-20T04:54:23;22.10;99.00
1700;DHT22;847;48.058;7.810;2023-08-20T04:56:50;22.10;99.00
1700;DHT22;847;48.058;7.810;2023-08-20T04:59:17;22.10;99.00
1700;DHT22;847;48.058;7.810;2023-08-20T05:01:43;22.10;99.00
1700;DHT22;847;48.058;7.810;2023-08-20T05:04:10;22.10;99.00
1700;DHT22;847;48.058;7.810;2023-08-20T05:06:37;22.20;99.00
1700;DHT22;847;48.058;7.810;2023-08-20T05:09:04;22.20;99.00
1700;DHT22;847;48.058;7.810;2023-08-20T05:11:32;22.20;99.00
1700;DHT22;847;48.058;7.810;2023-08-20T05:14:00;22.20;99.00
1700;DHT22;847;48.058;7.810;2023-08-20T05:16:26;22.20;99.00
1700;DHT22;847;48.058;7.810;2023-08-20T05:18:53;22.20;99.00
1700;DHT22;847;48.058;7.810;2023-08-20T05:21:20;22.20;99.00
1700;DHT22;847;48.058;7.810;2023-08-20T05:23:47;22.10;99.00
1700;DHT22;847;48.058;7.810;2023-08-20T05:26:13;22.20;99.00
1700;DHT22;847;48.058;7.810;2023-08-20T05:28:41;22.20;99.00
1700;DHT22;847;48.058;7.810;2023-08-20T05:31:08;22.20;99.00
1700;DHT22;847;48.058;7.810;2023-08-20T05:33:36;22.30;99.00
1700;DHT22;847;48.058;7.810;2023-08-20T05:36:03;22.20;99.00
1700;DHT22;847;48.058;7.810;2023-08-20T05:38:29;22.20;99.00
1700;DHT22;847;48.058;7.810;2023-08-20T05:40:56;22.10;99.00
1700;DHT22;847;48.058;7.810;2023-08-20T05:43:23;22.10;99.00
1700;DHT22;847;48.058;7.810;2023-08-20T05:45:51;22.10;99.00
1700;DHT22;847;48.058;7.810;2023-08-20T05:48:18;22.10;99.00
1700;DHT22;847;48.058;7.810;2023-08-20T05:50:44;22.20;99.00
1700;DHT22;847;48.058;7.810;2023-08-20T05:53:11;22.20;99.00
1700;DHT22;847;48.058;7.810;2023-08-20T05:55:38;22.20;99.00
1700;DHT22;847;48.058;7.810;2023-08-20T05:58:05;22.30;99.00
1700;DHT22;847;48.058;7.810;2023-08-20T06:00:32;22.20;99.00
1700;DHT22;847;48.058;7.810;2023-08-20T06:03:00;22.30;99.00
1700;DHT22;847;48.058;7.810;2023-08-20T06:05:27;22.30;99.00
1700;DHT22;847;48.058;7.810;2023-08-20T06:07:54;22.30;99.00
1700;DHT22;847;48.058;7.810;2023-08-20T06:10:20;22.30;99.00
1700;DHT22;847;48.058;7.810;2023-08-20T06:12:49;22.40;99.00
1700;DHT22;847;48.058;7.810;2023-08-20T06:15:16;22.40;99.00
1700;DHT22;847;48.058;7.810;2023-08-20T06:17:43;22.40;99.00
1700;DHT22;847;48.058;7.810;2023-08-20T06:20:11;22.50;99.00
1700;DHT22;847;48.058;7.810;2023-08-20T06:22:38;22.50;99.00
1700;DHT22;847;48.058;7.810;2023-08-20T06:25:06;22.60;99.00
1700;DHT22;847;48.058;7.810;2023-08-20T06:27:32;22.60;99.00
1700;DHT22;847;48.058;7.810;2023-08-20T06:29:59;22.70;99.00
1700;DHT22;847;48.058;7.810;2023-08-20T06:32:26;22.70;99.00
1700;DHT22;847;48.058;7.810;2023-08-20T06:34:53;22.80;99.00
1700;DHT22;847;48.058;7.810;2023-08-20T06:37:21;22.90;99.00
1700;DHT22;847;48.058;7.810;2023-08-20T06:39:48;22.90;99.00
1700;DHT22;847;48.058;7.810;2023-08-20T06:42:14;23.00;99.00
1700;DHT22;847;48.058;7.810;2023-08-20T06:44:42;23.00;99.00
1700;DHT22;847;48.058;7.810;2023-08-20T06:47:12;23.00;99.00
1700;DHT22;847;48.058;7.810;2023-08-20T06:49:40;23.10;99.00
1700;DHT22;847;48.058;7.810;2023-08-20T06:52:07;23.10;99.00
1700;DHT22;847;48.058;7.810;2023-08-20T06:54:35;23.20;99.00
1700;DHT22;847;48.058;7.810;2023-08-20T06:57:02;23.20;99.00
1700;DHT22;847;48.058;7.810;2023-08-20T06:59:29;23.20;99.00
1700;DHT22;847;48.058;7.810;2023-08-20T07:01:55;23.30;99.00
1700;DHT22;847;48.058;7.810;2023-08-20T07:04:22;23.30;99.00
1700;DHT22;847;48.058;7.810;2023-08-20T07:06:50;23.40;99.00
1700;DHT22;847;48.058;7.810;2023-08-20T07:09:17;23.30;99.00
1700;DHT22;847;48.058;7.810;2023-08-20T07:11:45;23.40;99.00
1700;DHT22;847;48.058;7.810;2023-08-20T07:14:12;23.40;99.00
1700;DHT22;847;48.058;7.810;2023-08-20T07:16:38;23.50;99.00
1700;DHT22;847;48.058;7.810;2023-08-20T07:19:05;23.50;99.00
1700;DHT22;847;48.058;7.810;2023-08-20T07:21:32;23.60;99.00
1700;DHT22;847;48.058;7.810;2023-08-20T07:23:59;23.60;99.00
1700;DHT22;847;48.058;7.810;2023-08-20T07:26:25;23.60;99.00
1700;DHT22;847;48.058;7.810;2023-08-20T07:28:54;23.60;99.00
1700;DHT22;847;48.058;7.810;2023-08-20T07:31:23;23.70;99.00
1700;DHT22;847;48.058;7.810;2023-08-20T07:33:50;23.70;99.00
1700;DHT22;847;48.058;7.810;2023-08-20T07:36:18;23.80;99.00
1700;DHT22;847;48.058;7.810;2023-08-20T07:38:47;23.80;99.00
1700;DHT22;847;48.058;7.810;2023-08-20T07:41:14;23.90;99.00
1700;DHT22;847;48.058;7.810;2023-08-20T07:43:41;23.90;99.00
1700;DHT22;847;48.058;7.810;2023-08-20T07:46:09;24.00;99.00
1700;DHT22;847;48.058;7.810;2023-08-20T07:48:36;24.10;99.00
1700;DHT22;847;48.058;7.810;2023-08-20T07:51:03;24.10;99.00
1700;DHT22;847;48.058;7.810;2023-08-20T07:53:30;24.10;98.40
1700;DHT22;847;48.058;7.810;2023-08-20T07:55:57;24.10;98.60
1700;DHT22;847;48.058;7.810;2023-08-20T07:58:24;24.10;98.60
1700;DHT22;847;48.058;7.810;2023-08-20T08:00:51;24.10;99.00
1700;DHT22;847;48.058;7.810;2023-08-20T08:03:19;24.20;98.90
1700;DHT22;847;48.058;7.810;2023-08-20T08:05:49;24.20;98.60
1700;DHT22;847;48.058;7.810;2023-08-20T08:08:17;24.20;98.30
1700;DHT22;847;48.058;7.810;2023-08-20T08:10:44;24.30;98.10
1700;DHT22;847;48.058;7.810;2023-08-20T08:13:11;24.40;98.20
1700;DHT22;847;48.058;7.810;2023-08-20T08:15:38;24.50;97.60
1700;DHT22;847;48.058;7.810;2023-08-20T08:18:05;24.60;98.90
1700;DHT22;847;48.058;7.810;2023-08-20T08:20:33;24.60;98.20
1700;DHT22;847;48.058;7.810;2023-08-20T08:23:00;24.70;98.30
1700;DHT22;847;48.058;7.810;2023-08-20T08:25:28;24.70;98.30
1700;DHT22;847;48.058;7.810;2023-08-20T08:27:55;24.70;97.80
1700;DHT22;847;48.058;7.810;2023-08-20T08:30:22;24.80;97.30
1700;DHT22;847;48.058;7.810;2023-08-20T08:32:48;24.80;97.50
1700;DHT22;847;48.058;7.810;2023-08-20T08:35:16;24.90;97.60
1700;DHT22;847;48.058;7.810;2023-08-20T08:37:45;25.00;97.50
1700;DHT22;847;48.058;7.810;2023-08-20T08:40:12;25.10;97.20
1700;DHT22;847;48.058;7.810;2023-08-20T08:42:40;25.20;96.60
1700;DHT22;847;48.058;7.810;2023-08-20T08:45:09;25.30;96.80
1700;DHT22;847;48.058;7.810;2023-08-20T08:47:36;25.30;95.20
1700;DHT22;847;48.058;7.810;2023-08-20T08:50:04;25.30;95.00
1700;DHT22;847;48.058;7.810;2023-08-20T08:52:31;25.30;94.90
1700;DHT22;847;48.058;7.810;2023-08-20T08:55:00;25.40;95.10
1700;DHT22;847;48.058;7.810;2023-08-20T08:57:27;25.40;94.90
1700;DHT22;847;48.058;7.810;2023-08-20T08:59:54;25.50;94.50
1700;DHT22;847;48.058;7.810;2023-08-20T09:02:20;25.60;92.90
1700;DHT22;847;48.058;7.810;2023-08-20T09:04:48;25.60;92.20
1700;DHT22;847;48.058;7.810;2023-08-20T09:07:15;25.70;92.00
1700;DHT22;847;48.058;7.810;2023-08-20T09:09:43;25.70;91.50
1700;DHT22;847;48.058;7.810;2023-08-20T09:12:14;25.70;91.40
1700;DHT22;847;48.058;7.810;2023-08-20T09:14:45;25.80;92.50
1700;DHT22;847;48.058;7.810;2023-08-20T09:17:13;25.80;92.60
1700;DHT22;847;48.058;7.810;2023-08-20T09:19:42;25.90;93.70
1700;DHT22;847;48.058;7.810;2023-08-20T09:22:10;26.00;92.70
1700;DHT22;847;48.058;7.810;2023-08-20T09:24:39;26.00;93.40
1700;DHT22;847;48.058;7.810;2023-08-20T09:27:08;26.10;94.60
1700;DHT22;847;48.058;7.810;2023-08-20T09:29:43;26.30;93.60
1700;DHT22;847;48.058;7.810;2023-08-20T09:32:14;26.30;92.20
1700;DHT22;847;48.058;7.810;2023-08-20T09:34:41;26.40;90.70
1700;DHT22;847;48.058;7.810;2023-08-20T09:37:08;26.60;91.00
1700;DHT22;847;48.058;7.810;2023-08-20T09:39:36;26.70;90.90
1700;DHT22;847;48.058;7.810;2023-08-20T09:42:04;26.70;89.80
1700;DHT22;847;48.058;7.810;2023-08-20T09:44:33;26.70;89.30
1700;DHT22;847;48.058;7.810;2023-08-20T09:47:05;26.70;89.60
1700;DHT22;847;48.058;7.810;2023-08-20T09:49:36;26.70;91.70
1700;DHT22;847;48.058;7.810;2023-08-20T09:52:05;26.80;92.80
1700;DHT22;847;48.058;7.810;2023-08-20T09:54:40;26.90;93.60
1700;DHT22;847;48.058;7.810;2023-08-20T09:57:14;26.80;91.80
1700;DHT22;847;48.058;7.810;2023-08-20T09:59:45;26.90;91.50
1700;DHT22;847;48.058;7.810;2023-08-20T10:02:15;26.90;90.50
1700;DHT22;847;48.058;7.810;2023-08-20T10:04:43;27.00;89.10
1700;DHT22;847;48.058;7.810;2023-08-20T10:07:10;27.10;88.40
1700;DHT22;847;48.058;7.810;2023-08-20T10:09:38;27.20;88.50
1700;DHT22;847;48.058;7.810;2023-08-20T10:12:05;27.20;87.50
1700;DHT22;847;48.058;7.810;2023-08-20T10:14:33;27.20;88.90
1700;DHT22;847;48.058;7.810;2023-08-20T10:17:05;27.40;88.50
1700;DHT22;847;48.058;7.810;2023-08-20T10:19:33;27.40;88.00
1700;DHT22;847;48.058;7.810;2023-08-20T10:22:02;27.50;85.80
1700;DHT22;847;48.058;7.810;2023-08-20T10:24:28;27.50;87.60
1700;DHT22;847;48.058;7.810;2023-08-20T10:27:09;27.60;86.60
1700;DHT22;847;48.058;7.810;2023-08-20T10:29:37;27.70;87.80
1700;DHT22;847;48.058;7.810;2023-08-20T10:32:06;27.80;86.30
1700;DHT22;847;48.058;7.810;2023-08-20T10:34:36;27.70;87.60
1700;DHT22;847;48.058;7.810;2023-08-20T10:37:09;27.80;88.90
1700;DHT22;847;48.058;7.810;2023-08-20T10:39:36;28.00;86.60
1700;DHT22;847;48.058;7.810;2023-08-20T10:45:01;28.10;88.20
1700;DHT22;847;48.058;7.810;2023-08-20T10:47:42;28.20;88.40
1700;DHT22;847;48.058;7.810;2023-08-20T10:50:11;28.30;87.60
1700;DHT22;847;48.058;7.810;2023-08-20T10:52:41;28.50;87.70
1700;DHT22;847;48.058;7.810;2023-08-20T10:55:13;28.40;87.10
1700;DHT22;847;48.058;7.810;2023-08-20T10:57:40;28.40;87.90
1700;DHT22;847;48.058;7.810;2023-08-20T11:00:08;28.40;86.80
1700;DHT22;847;48.058;7.810;2023-08-20T11:02:37;28.40;87.40
1700;DHT22;847;48.058;7.810;2023-08-20T11:05:17;28.60;88.00
1700;DHT22;847;48.058;7.810;2023-08-20T11:07:46;28.70;88.40
1700;DHT22;847;48.058;7.810;2023-08-20T11:10:14;28.80;87.70
1700;DHT22;847;48.058;7.810;2023-08-20T11:12:41;28.70;87.90
1700;DHT22;847;48.058;7.810;2023-08-20T11:15:09;28.80;87.90
1700;DHT22;847;48.058;7.810;2023-08-20T11:17:41;29.00;87.70
1700;DHT22;847;48.058;7.810;2023-08-20T11:20:09;29.10;87.80
1700;DHT22;847;48.058;7.810;2023-08-20T11:22:39;29.10;87.40
1700;DHT22;847;48.058;7.810;2023-08-20T11:25:10;29.20;86.50
1700;DHT22;847;48.058;7.810;2023-08-20T11:27:40;29.10;86.80
1700;DHT22;847;48.058;7.810;2023-08-20T11:30:08;29.20;85.70
1700;DHT22;847;48.058;7.810;2023-08-20T11:32:37;29.30;85.70
1700;DHT22;847;48.058;7.810;2023-08-20T11:35:05;29.30;86.00
1700;DHT22;847;48.058;7.810;2023-08-20T11:37:32;29.30;85.20
1700;DHT22;847;48.058;7.810;2023-08-20T11:40:00;29.30;86.00
1700;DHT22;847;48.058;7.810;2023-08-20T11:42:27;29.30;85.10
1700;DHT22;847;48.058;7.810;2023-08-20T11:44:56;29.40;84.60
1700;DHT22;847;48.058;7.810;2023-08-20T11:47:23;29.40;83.50
1700;DHT22;847;48.058;7.810;2023-08-20T11:50:02;29.40;83.50
1700;DHT22;847;48.058;7.810;2023-08-20T11:52:31;29.40;84.00
1700;DHT22;847;48.058;7.810;2023-08-20T11:54:57;29.40;84.00
1700;DHT22;847;48.058;7.810;2023-08-20T11:57:27;29.40;84.20
1700;DHT22;847;48.058;7.810;2023-08-20T11:59:54;29.60;83.80
1700;DHT22;847;48.058;7.810;2023-08-20T12:02:25;29.70;83.80
1700;DHT22;847;48.058;7.810;2023-08-20T12:04:54;29.70;82.30
1700;DHT22;847;48.058;7.810;2023-08-20T12:07:25;29.70;84.50
1700;DHT22;847;48.058;7.810;2023-08-20T12:09:52;29.80;84.00
1700;DHT22;847;48.058;7.810;2023-08-20T12:12:19;29.80;83.00
1700;DHT22;847;48.058;7.810;2023-08-20T12:14:48;29.80;83.80
1700;DHT22;847;48.058;7.810;2023-08-20T12:17:17;29.80;82.00
1700;DHT22;847;48.058;7.810;2023-08-20T12:19:44;29.80;83.30
1700;DHT22;847;48.058;7.810;2023-08-20T12:22:10;30.00;81.90
1700;DHT22;847;48.058;7.810;2023-08-20T12:24:37;29.90;80.30
1700;DHT22;847;48.058;7.810;2023-08-20T12:27:04;30.00;81.20
1700;DHT22;847;48.058;7.810;2023-08-20T12:29:31;29.90;81.90
1700;DHT22;847;48.058;7.810;2023-08-20T12:31:59;30.00;82.70
1700;DHT22;847;48.058;7.810;2023-08-20T12:34:26;30.20;82.30
1700;DHT22;847;48.058;7.810;2023-08-20T12:36:59;30.30;81.80
1700;DHT22;847;48.058;7.810;2023-08-20T12:39:27;30.40;80.90
1700;DHT22;847;48.058;7.810;2023-08-20T12:41:54;30.40;81.70
1700;DHT22;847;48.058;7.810;2023-08-20T12:44:21;30.40;81.60
1700;DHT22;847;48.058;7.810;2023-08-20T12:46:47;30.50;81.50
1700;DHT22;847;48.058;7.810;2023-08-20T12:49:15;30.50;80.80
1700;DHT22;847;48.058;7.810;2023-08-20T12:51:42;30.60;81.70
1700;DHT22;847;48.058;7.810;2023-08-20T12:54:09;30.70;78.70
1700;DHT22;847;48.058;7.810;2023-08-20T12:56:36;30.70;80.90
1700;DHT22;847;48.058;7.810;2023-08-20T12:59:03;30.80;81.20
1700;DHT22;847;48.058;7.810;2023-08-20T13:01:30;30.80;78.90
1700;DHT22;847;48.058;7.810;2023-08-20T13:03:57;30.80;79.40
1700;DHT22;847;48.058;7.810;2023-08-20T13:06:26;30.80;79.10
1700;DHT22;847;48.058;7.810;2023-08-20T13:08:54;30.70;78.20
1700;DHT22;847;48.058;7.810;2023-08-20T13:11:22;30.90;77.10
1700;DHT22;847;48.058;7.810;2023-08-20T13:13:51;30.90;78.50
1700;DHT22;847;48.058;7.810;2023-08-20T13:16:19;31.00;78.80
1700;DHT22;847;48.058;7.810;2023-08-20T13:18:46;30.90;78.10
1700;DHT22;847;48.058;7.810;2023-08-20T13:21:13;31.00;78.50
1700;DHT22;847;48.058;7.810;2023-08-20T13:23:41;31.00;80.10
1700;DHT22;847;48.058;7.810;2023-08-20T13:26:07;31.00;79.90
1700;DHT22;847;48.058;7.810;2023-08-20T13:28:34;31.00;79.20
1700;DHT22;847;48.058;7.810;2023-08-20T13:31:01;31.10;76.10
1700;DHT22;847;48.058;7.810;2023-08-20T13:33:28;31.10;75.80
1700;DHT22;847;48.058;7.810;2023-08-20T13:35:55;31.00;76.90
1700;DHT22;847;48.058;7.810;2023-08-20T13:38:23;31.10;77.90
1700;DHT22;847;48.058;7.810;2023-08-20T13:40:52;31.20;79.20
1700;DHT22;847;48.058;7.810;2023-08-20T13:43:19;31.20;78.40
1700;DHT22;847;48.058;7.810;2023-08-20T13:45:45;31.30;78.80
1700;DHT22;847;48.058;7.810;2023-08-20T13:48:12;31.30;79.20
1700;DHT22;847;48.058;7.810;2023-08-20T13:50:39;31.20;79.80
1700;DHT22;847;48.058;7.810;2023-08-20T13:53:06;31.20;79.70
1700;DHT22;847;48.058;7.810;2023-08-20T13:55:32;31.30;79.40
1700;DHT22;847;48.058;7.810;2023-08-20T13:58:01;31.40;79.50
1700;DHT22;847;48.058;7.810;2023-08-20T14:00:27;31.40;78.70
1700;DHT22;847;48.058;7.810;2023-08-20T14:02:54;31.30;78.80
1700;DHT22;847;48.058;7.810;2023-08-20T14:05:21;31.30;79.30
1700;DHT22;847;48.058;7.810;2023-08-20T14:07:48;31.20;78.00
1700;DHT22;847;48.058;7.810;2023-08-20T14:10:14;31.20;77.80
1700;DHT22;847;48.058;7.810;2023-08-20T14:12:41;31.30;78.60
1700;DHT22;847;48.058;7.810;2023-08-20T14:15:10;31.30;78.60
1700;DHT22;847;48.058;7.810;2023-08-20T14:17:37;31.10;78.80
1700;DHT22;847;48.058;7.810;2023-08-20T14:20:04;31.10;79.80
1700;DHT22;847;48.058;7.810;2023-08-20T14:22:32;31.10;79.20
1700;DHT22;847;48.058;7.810;2023-08-20T14:24:59;31.10;79.40
1700;DHT22;847;48.058;7.810;2023-08-20T14:27:26;31.20;80.20
1700;DHT22;847;48.058;7.810;2023-08-20T14:29:52;31.20;80.30
1700;DHT22;847;48.058;7.810;2023-08-20T14:32:20;31.20;79.70
1700;DHT22;847;48.058;7.810;2023-08-20T14:34:47;31.20;79.50
1700;DHT22;847;48.058;7.810;2023-08-20T14:37:14;31.30;79.70
1700;DHT22;847;48.058;7.810;2023-08-20T14:39:41;31.40;78.90
1700;DHT22;847;48.058;7.810;2023-08-20T14:42:07;31.40;78.70
1700;DHT22;847;48.058;7.810;2023-08-20T14:44:34;31.40;78.10
1700;DHT22;847;48.058;7.810;2023-08-20T14:47:01;31.50;78.80
1700;DHT22;847;48.058;7.810;2023-08-20T14:49:31;31.40;78.40
1700;DHT22;847;48.058;7.810;2023-08-20T14:51:58;31.50;77.90
1700;DHT22;847;48.058;7.810;2023-08-20T14:54:25;31.50;78.60
1700;DHT22;847;48.058;7.810;2023-08-20T14:56:51;31.60;77.60
1700;DHT22;847;48.058;7.810;2023-08-20T14:59:18;31.60;78.60
1700;DHT22;847;48.058;7.810;2023-08-20T15:01:45;31.60;77.80
1700;DHT22;847;48.058;7.810;2023-08-20T15:04:12;31.70;76.30
1700;DHT22;847;48.058;7.810;2023-08-20T15:06:40;31.60;77.10
1700;DHT22;847;48.058;7.810;2023-08-20T15:09:07;31.60;77.70
1700;DHT22;847;48.058;7.810;2023-08-20T15:11:40;31.50;77.60
1700;DHT22;847;48.058;7.810;2023-08-20T15:14:07;31.50;77.60
1700;DHT22;847;48.058;7.810;2023-08-20T15:16:34;31.40;77.40
1700;DHT22;847;48.058;7.810;2023-08-20T15:19:01;31.40;78.20
1700;DHT22;847;48.058;7.810;2023-08-20T15:21:28;31.50;78.80
1700;DHT22;847;48.058;7.810;2023-08-20T15:23:56;31.50;78.10
1700;DHT22;847;48.058;7.810;2023-08-20T15:26:23;31.60;78.40
1700;DHT22;847;48.058;7.810;2023-08-20T15:28:49;31.50;78.60
1700;DHT22;847;48.058;7.810;2023-08-20T15:31:16;31.50;78.60
1700;DHT22;847;48.058;7.810;2023-08-20T15:33:43;31.50;78.80
1700;DHT22;847;48.058;7.810;2023-08-20T15:36:10;31.70;78.70
1700;DHT22;847;48.058;7.810;2023-08-20T15:38:36;31.70;78.10
1700;DHT22;847;48.058;7.810;2023-08-20T15:41:05;31.80;78.60
1700;DHT22;847;48.058;7.810;2023-08-20T15:43:32;31.90;77.70
1700;DHT22;847;48.058;7.810;2023-08-20T15:45:59;32.00;77.90
1700;DHT22;847;48.058;7.810;2023-08-20T15:48:25;32.10;76.00
1700;DHT22;847;48.058;7.810;2023-08-20T15:50:52;32.10;76.30
1700;DHT22;847;48.058;7.810;2023-08-20T15:53:19;32.10;77.20
1700;DHT22;847;48.058;7.810;2023-08-20T15:55:45;32.20;76.20
1700;DHT22;847;48.058;7.810;2023-08-20T15:58:14;32.30;76.00
1700;DHT22;847;48.058;7.810;2023-08-20T16:00:40;32.20;76.40
1700;DHT22;847;48.058;7.810;2023-08-20T16:03:07;32.20;75.80
1700;DHT22;847;48.058;7.810;2023-08-20T16:05:36;32.20;76.70
1700;DHT22;847;48.058;7.810;2023-08-20T16:08:04;32.30;76.30
1700;DHT22;847;48.058;7.810;2023-08-20T16:10:31;32.30;76.00
1700;DHT22;847;48.058;7.810;2023-08-20T16:12:58;32.20;76.20
1700;DHT22;847;48.058;7.810;2023-08-20T16:15:26;32.10;76.70
1700;DHT22;847;48.058;7.810;2023-08-20T16:17:52;31.90;77.20
1700;DHT22;847;48.058;7.810;2023-08-20T16:20:20;31.70;77.20
1700;DHT22;847;48.058;7.810;2023-08-20T16:22:47;31.70;77.20